Time,TemperatureF,DewpointF,PressureIn,WindDirection,WindDirectionDegrees,WindSpeedMPH,WindSpeedGustMPH,Humidity,HourlyPrecipIn,Conditions,Clouds,dailyrainin,SoftwareType,DateUTC
2013-02-15 00:01:00,45.1,31.0,30.13,SE,130,1.0,3.0,58,0.00,,,0.00,weatherlink.com 1.10,2013-02-15 07:01:00,
2013-02-15 00:16:00,45.0,31.0,30.13,ESE,116,0.0,1.0,58,0.00,,,0.00,weatherlink.com 1.10,2013-02-15 07:16:00,
2013-02-15 00:31:00,44.9,31.0,30.14,ESE,105,1.0,2.0,58,0.00,,,0.00,weatherlink.com 1.10,2013-02-15 07:31:00,
2013-02-15 00:46:00,44.5,31.0,30.14,ESE,105,1.0,2.0,59,0.00,,,0.00,weatherlink.com 1.10,2013-02-15 07:46:00,
2013-02-15 01:01:00,43.9,31.0,30.14,ESE,114,1.0,3.0,61,0.00,,,0.00,weatherlink.com 1.10,2013-02-15 08:01:00,
2013-02-15 01:16:00,43.8,31.0,30.14,ESE,112,1.0,5.0,60,0.00,,,0.00,weatherlink.com 1.10,2013-02-15 08:16:00,
2013-02-15 01:31:00,44.0,31.0,30.14,ESE,108,1.0,2.0,60,0.00,,,0.00,weatherlink.com 1.10,2013-02-15 08:31:00,
2013-02-15 01:46:00,44.0,30.0,30.14,SE,139,0.0,2.0,59,0.00,,,0.00,weatherlink.com 1.10,2013-02-15 08:46:00,
2013-02-15 02:01:00,43.9,30.0,30.14,WSW,255,0.0,1.0,59,0.00,,,0.00,weatherlink.com 1.10,2013-02-15 09:01:00,
2013-02-15 02:16:00,43.3,30.0,30.14,South,170,0.0,0.0,59,0.00,,,0.00,weatherlink.com 1.10,2013-02-15 09:16:00,
2013-02-15 02:31:00,42.6,30.0,30.14,South,170,0.0,0.0,62,0.00,,,0.00,weatherlink.com 1.10,2013-02-15 09:31:00,
2013-02-15 02:46:00,42.6,30.0,30.15,ENE,59,0.0,1.0,62,0.00,,,0.00,weatherlink.com 1.10,2013-02-15 09:46:00,
2013-02-15 03:01:00,42.8,30.0,30.14,SE,144,1.0,4.0,62,0.00,,,0.00,weatherlink.com 1.10,2013-02-15 10:01:00,
2013-02-15 03:16:00,43.0,30.0,30.14,SE,139,0.0,1.0,61,0.00,,,0.00,weatherlink.com 1.10,2013-02-15 10:16:00,
2013-02-15 03:31:00,42.5,31.0,30.14,ESE,120,0.0,1.0,63,0.00,,,0.00,weatherlink.com 1.10,2013-02-15 10:31:00,
2013-02-15 03:46:00,41.8,31.0,30.13,ESE,111,0.0,1.0,65,0.00,,,0.00,weatherlink.com 1.10,2013-02-15 10:46:00,
2013-02-15 04:02:00,41.6,31.0,30.13,ESE,113,0.0,1.0,65,0.00,,,0.00,weatherlink.com 1.10,2013-02-15 11:02:00,
2013-02-15 04:17:00,41.6,31.0,30.13,SSE,152,1.0,1.0,65,0.00,,,0.00,weatherlink.com 1.10,2013-02-15 11:17:00,
2013-02-15 04:32:00,41.8,31.0,30.13,SE,126,0.0,1.0,65,0.00,,,0.00,weatherlink.com 1.10,2013-02-15 11:32:00,
2013-02-15 04:47:00,41.2,31.0,30.13,SE,125,0.0,0.0,66,0.00,,,0.00,weatherlink.com 1.10,2013-02-15 11:47:00,
2013-02-15 05:02:00,40.5,31.0,30.13,SE,126,0.0,0.0,68,0.00,,,0.00,weatherlink.com 1.10,2013-02-15 12:02:00,
2013-02-15 05:17:00,40.8,31.0,30.15,SE,126,1.0,1.0,68,0.00,,,0.00,weatherlink.com 1.10,2013-02-15 12:17:00,
2013-02-15 05:32:00,40.7,31.0,30.15,SE,134,0.0,1.0,69,0.00,,,0.00,weatherlink.com 1.10,2013-02-15 12:32:00,
2013-02-15 05:47:00,40.7,31.0,30.15,SE,139,0.0,2.0,68,0.00,,,0.00,weatherlink.com 1.10,2013-02-15 12:47:00,
2013-02-15 06:02:00,40.5,31.0,30.15,ESE,114,0.0,1.0,69,0.00,,,0.00,weatherlink.com 1.10,2013-02-15 13:02:00,
2013-02-15 06:17:00,40.1,31.0,30.16,SSW,195,0.0,0.0,70,0.00,,,0.00,weatherlink.com 1.10,2013-02-15 13:17:00,
2013-02-15 06:32:00,40.1,31.0,30.16,South,180,0.0,0.0,70,0.00,,,0.00,weatherlink.com 1.10,2013-02-15 13:32:00,
2013-02-15 06:47:00,40.1,31.0,30.16,SSE,160,0.0,1.0,69,0.00,,,0.00,weatherlink.com 1.10,2013-02-15 13:47:00,
2013-02-15 07:02:00,40.0,31.0,30.17,South,180,0.0,1.0,70,0.00,,,0.00,weatherlink.com 1.10,2013-02-15 14:02:00,
2013-02-15 07:17:00,39.6,31.0,30.18,SSW,199,0.0,1.0,70,0.00,,,0.00,weatherlink.com 1.10,2013-02-15 14:17:00,
2013-02-15 07:32:00,40.0,31.0,30.18,SSW,198,0.0,0.0,70,0.00,,,0.00,weatherlink.com 1.10,2013-02-15 14:32:00,
2013-02-15 07:47:00,40.6,32.0,30.18,SSW,200,0.0,1.0,70,0.00,,,0.00,weatherlink.com 1.10,2013-02-15 14:47:00,
2013-02-15 08:02:00,41.3,32.0,30.19,SSW,203,1.0,1.0,70,0.00,,,0.00,weatherlink.com 1.10,2013-02-15 15:02:00,
2013-02-15 08:17:00,42.1,33.0,30.20,ESE,120,0.0,0.0,70,0.00,,,0.00,weatherlink.com 1.10,2013-02-15 15:17:00,
2013-02-15 08:32:00,43.3,33.0,30.21,ESE,120,0.0,1.0,68,0.00,,,0.00,weatherlink.com 1.10,2013-02-15 15:32:00,
2013-02-15 08:47:00,44.9,33.0,30.21,ESE,105,1.0,2.0,64,0.00,,,0.00,weatherlink.com 1.10,2013-02-15 15:47:00,
2013-02-15 09:02:00,47.2,33.0,30.21,SSE,165,0.0,3.0,59,0.00,,,0.00,weatherlink.com 1.10,2013-02-15 16:02:00,
2013-02-15 09:17:00,49.7,33.0,30.21,WSW,256,0.0,1.0,53,0.00,,,0.00,weatherlink.com 1.10,2013-02-15 16:17:00,
2013-02-15 09:32:00,51.9,33.0,30.21,WSW,248,0.0,1.0,48,0.00,,,0.00,weatherlink.com 1.10,2013-02-15 16:32:00,
2013-02-15 09:47:00,53.8,32.0,30.21,WSW,255,1.0,1.0,43,0.00,,,0.00,weatherlink.com 1.10,2013-02-15 16:47:00,
2013-02-15 10:02:00,55.5,31.0,30.21,WSW,255,0.0,2.0,40,0.00,,,0.00,weatherlink.com 1.10,2013-02-15 17:02:00,
2013-02-15 10:17:00,57.4,30.0,30.21,South,179,0.0,3.0,36,0.00,,,0.00,weatherlink.com 1.10,2013-02-15 17:17:00,
2013-02-15 10:32:00,58.7,30.0,30.21,SE,132,0.0,3.0,34,0.00,,,0.00,weatherlink.com 1.10,2013-02-15 17:32:00,
2013-02-15 10:48:00,60.0,31.0,30.21,WSW,249,0.0,2.0,33,0.00,,,0.00,weatherlink.com 1.10,2013-02-15 17:48:00,
2013-02-15 11:03:00,63.0,29.0,30.21,WSW,248,0.0,1.0,28,0.00,,,0.00,weatherlink.com 1.10,2013-02-15 18:03:00,
2013-02-15 11:18:00,63.6,28.0,30.22,WSW,252,1.0,2.0,26,0.00,,,0.00,weatherlink.com 1.10,2013-02-15 18:18:00,
2013-02-15 11:48:00,65.2,26.0,30.22,ESE,116,0.0,3.0,23,0.00,,,0.00,weatherlink.com 1.10,2013-02-15 18:48:00,
2013-02-15 12:03:00,66.4,25.0,30.22,NE,56,5.0,8.0,21,0.00,,,0.00,weatherlink.com 1.10,2013-02-15 19:03:00,
2013-02-15 12:18:00,66.6,24.0,30.21,NE,51,4.0,12.0,20,0.00,,,0.00,weatherlink.com 1.10,2013-02-15 19:18:00,
2013-02-15 12:33:00,66.6,24.0,30.21,NE,49,6.0,9.0,20,0.00,,,0.00,weatherlink.com 1.10,2013-02-15 19:33:00,
2013-02-15 12:48:00,66.8,23.0,30.20,ESE,112,5.0,11.0,19,0.00,,,0.00,weatherlink.com 1.10,2013-02-15 19:48:00,
2013-02-15 13:02:00,67.9,23.0,30.19,NE,53,6.0,11.0,18,0.00,,,0.00,weatherlink.com 1.10,2013-02-15 20:02:00,
2013-02-15 13:18:00,68.3,22.0,30.18,NE,56,5.0,12.0,17,0.00,,,0.00,weatherlink.com 1.10,2013-02-15 20:18:00,
2013-02-15 13:33:00,69.3,23.0,30.18,ESE,116,3.0,7.0,17,0.00,,,0.00,weatherlink.com 1.10,2013-02-15 20:33:00,
2013-02-15 13:48:00,71.0,21.0,30.17,ENE,61,3.0,7.0,15,0.00,,,0.00,weatherlink.com 1.10,2013-02-15 20:48:00,
2013-02-15 14:03:00,70.6,19.0,30.17,NNE,23,3.0,6.0,14,0.00,,,0.00,weatherlink.com 1.10,2013-02-15 21:03:00,
2013-02-15 14:18:00,70.5,19.0,30.17,NNE,23,1.0,7.0,14,0.00,,,0.00,weatherlink.com 1.10,2013-02-15 21:18:00,
2013-02-15 14:33:00,71.2,18.0,30.16,SSE,159,0.0,4.0,13,0.00,,,0.00,weatherlink.com 1.10,2013-02-15 21:33:00,
2013-02-15 14:48:00,72.6,17.0,30.16,West,266,2.0,3.0,12,0.00,,,0.00,weatherlink.com 1.10,2013-02-15 21:48:00,
2013-02-15 15:03:00,72.0,23.0,30.16,SW,234,2.0,6.0,16,0.00,,,0.00,weatherlink.com 1.10,2013-02-15 22:03:00,
2013-02-15 15:18:00,71.9,25.0,30.16,West,273,2.0,6.0,17,0.00,,,0.00,weatherlink.com 1.10,2013-02-15 22:18:00,
2013-02-15 15:33:00,72.6,24.0,30.16,SSW,207,0.0,4.0,16,0.00,,,0.00,weatherlink.com 1.10,2013-02-15 22:33:00,
2013-02-15 15:48:00,72.8,22.0,30.16,NW,304,2.0,5.0,15,0.00,,,0.00,weatherlink.com 1.10,2013-02-15 22:48:00,
2013-02-15 16:03:00,72.2,22.0,30.16,NNE,30,2.0,7.0,15,0.00,,,0.00,weatherlink.com 1.10,2013-02-15 23:03:00,
2013-02-15 16:18:00,71.9,23.0,30.15,WNW,300,2.0,5.0,16,0.00,,,0.00,weatherlink.com 1.10,2013-02-15 23:18:00,
2013-02-15 16:33:00,72.0,23.0,30.15,WNW,300,1.0,7.0,16,0.00,,,0.00,weatherlink.com 1.10,2013-02-15 23:33:00,
2013-02-15 16:48:00,71.6,16.0,30.16,NNW,330,1.0,7.0,12,0.00,,,0.00,weatherlink.com 1.10,2013-02-15 23:48:00,
2013-02-15 17:03:00,71.2,12.0,30.16,NE,48,4.0,8.0,10,0.00,,,0.00,weatherlink.com 1.10,2013-02-16 00:03:00,
2013-02-15 17:18:00,70.8,14.0,30.16,NE,35,4.0,8.0,11,0.00,,,0.00,weatherlink.com 1.10,2013-02-16 00:18:00,
2013-02-15 17:33:00,70.2,13.0,30.15,North,359,4.0,8.0,11,0.00,,,0.00,weatherlink.com 1.10,2013-02-16 00:33:00,
2013-02-15 17:48:00,69.8,15.0,30.15,East,83,2.0,7.0,12,0.00,,,0.00,weatherlink.com 1.10,2013-02-16 00:48:00,
2013-02-15 18:03:00,68.8,16.0,30.16,ENE,66,1.0,4.0,13,0.00,,,0.00,weatherlink.com 1.10,2013-02-16 01:03:00,
2013-02-15 18:18:00,67.2,15.0,30.16,East,79,3.0,4.0,13,0.00,,,0.00,weatherlink.com 1.10,2013-02-16 01:18:00,
2013-02-15 18:33:00,65.9,15.0,30.16,NNE,25,2.0,5.0,14,0.00,,,0.00,weatherlink.com 1.10,2013-02-16 01:33:00,
2013-02-15 18:48:00,65.0,16.0,30.16,NNE,25,1.0,4.0,15,0.00,,,0.00,weatherlink.com 1.10,2013-02-16 01:48:00,
2013-02-15 19:03:00,63.9,18.0,30.17,East,81,0.0,2.0,17,0.00,,,0.00,weatherlink.com 1.10,2013-02-16 02:03:00,
2013-02-15 19:18:00,61.3,19.0,30.18,East,81,0.0,1.0,19,0.00,,,0.00,weatherlink.com 1.10,2013-02-16 02:18:00,
2013-02-15 19:33:00,60.4,19.0,30.18,NNW,344,0.0,2.0,20,0.00,,,0.00,weatherlink.com 1.10,2013-02-16 02:33:00,
2013-02-15 19:48:00,59.7,21.0,30.19,North,1,0.0,3.0,22,0.00,,,0.00,weatherlink.com 1.10,2013-02-16 02:48:00,
2013-02-15 20:03:00,59.6,19.0,30.19,ENE,64,0.0,2.0,21,0.00,,,0.00,weatherlink.com 1.10,2013-02-16 03:03:00,
2013-02-15 20:18:00,59.0,21.0,30.20,ENE,68,0.0,2.0,23,0.00,,,0.00,weatherlink.com 1.10,2013-02-16 03:18:00,
2013-02-15 20:33:00,57.9,21.0,30.20,East,79,0.0,2.0,24,0.00,,,0.00,weatherlink.com 1.10,2013-02-16 03:33:00,
2013-02-15 20:48:00,56.2,22.0,30.20,SE,136,1.0,3.0,26,0.00,,,0.00,weatherlink.com 1.10,2013-02-16 03:48:00,
2013-02-15 21:03:00,55.3,23.0,30.21,SE,138,0.0,1.0,28,0.00,,,0.00,weatherlink.com 1.10,2013-02-16 04:03:00,
2013-02-15 21:18:00,53.9,23.0,30.22,SE,127,0.0,1.0,30,0.00,,,0.00,weatherlink.com 1.10,2013-02-16 04:18:00,
2013-02-15 21:33:00,52.5,24.0,30.22,SSW,195,0.0,1.0,33,0.00,,,0.00,weatherlink.com 1.10,2013-02-16 04:33:00,
2013-02-15 21:48:00,51.6,24.0,30.23,SW,236,0.0,1.0,34,0.00,,,0.00,weatherlink.com 1.10,2013-02-16 04:48:00,
2013-02-15 22:03:00,50.1,25.0,30.23,SE,134,0.0,1.0,37,0.00,,,0.00,weatherlink.com 1.10,2013-02-16 05:03:00,
2013-02-15 22:19:00,49.8,24.0,30.23,SSE,149,1.0,1.0,37,0.00,,,0.00,weatherlink.com 1.10,2013-02-16 05:19:00,
2013-02-15 22:34:00,48.8,25.0,30.24,ESE,105,0.0,1.0,39,0.00,,,0.00,weatherlink.com 1.10,2013-02-16 05:34:00,
2013-02-15 22:49:00,49.0,25.0,30.24,West,266,1.0,1.0,39,0.00,,,0.00,weatherlink.com 1.10,2013-02-16 05:49:00,
2013-02-15 23:04:00,47.6,25.0,30.24,ESE,110,1.0,2.0,41,0.00,,,0.00,weatherlink.com 1.10,2013-02-16 06:04:00,
2013-02-15 23:19:00,48.5,23.0,30.25,SW,225,0.0,2.0,37,0.00,,,0.00,weatherlink.com 1.10,2013-02-16 06:19:00,
2013-02-15 23:34:00,46.6,24.0,30.26,SSW,203,0.0,0.0,42,0.00,,,0.00,weatherlink.com 1.10,2013-02-16 06:34:00,
2013-02-15 23:49:00,46.4,22.0,30.26,East,84,0.0,1.0,38,0.00,,,0.00,weatherlink.com 1.10,2013-02-16 06:49:00,